sensor_id;sensor_type;location;lat;lon;timestamp;temperature;humidity
23495;DHT22;26107;50.832;2.950;2024-02-26T00:00:55;8.30;99.90
23495;DHT22;26107;50.832;2.950;2024-02-26T00:31:55;8.20;99.90
23495;DHT22;26107;50.832;2.950;2024-02-26T00:46:56;8.00;99.90
23495;DHT22;26107;50.832;2.950;2024-02-26T01:01:56;8.00;99.90
23495;DHT22;26107;50.832;2.950;2024-02-26T01:33:00;7.80;99.90
23495;DHT22;26107;50.832;2.950;2024-02-26T01:48:04;7.70;99.90
23495;DHT22;26107;50.832;2.950;2024-02-26T02:03:05;7.70;99.90
23495;DHT22;26107;50.832;2.950;2024-02-26T02:34:05;7.50;99.90
23495;DHT22;26107;50.832;2.950;2024-02-26T02:49:09;7.60;99.90
23495;DHT22;26107;50.832;2.950;2024-02-26T03:04:13;7.30;99.90
23495;DHT22;26107;50.832;2.950;2024-02-26T03:19:17;7.40;99.90
23495;DHT22;26107;50.832;2.950;2024-02-26T03:34:22;7.40;99.90
23495;DHT22;26107;50.832;2.950;2024-02-26T03:49:23;7.40;99.90
23495;DHT22;26107;50.832;2.950;2024-02-26T04:04:23;7.50;99.90
23495;DHT22;26107;50.832;2.950;2024-02-26T04:19:24;7.50;99.90
23495;DHT22;26107;50.832;2.950;2024-02-26T04:34:24;7.30;99.90
23495;DHT22;26107;50.832;2.950;2024-02-26T04:49:27;7.30;99.90
23495;DHT22;26107;50.832;2.950;2024-02-26T05:04:28;7.40;99.90
23495;DHT22;26107;50.832;2.950;2024-02-26T05:19:28;7.40;99.90
23495;DHT22;26107;50.832;2.950;2024-02-26T05:34:31;7.20;99.90
23495;DHT22;26107;50.832;2.950;2024-02-26T05:49:32;7.30;99.90
23495;DHT22;26107;50.832;2.950;2024-02-26T06:04:33;7.30;99.90
23495;DHT22;26107;50.832;2.950;2024-02-26T06:19:39;7.10;99.90
23495;DHT22;26107;50.832;2.950;2024-02-26T06:34:41;7.10;99.90
23495;DHT22;26107;50.832;2.950;2024-02-26T06:49:47;6.90;99.90
23495;DHT22;26107;50.832;2.950;2024-02-26T07:04:50;6.90;99.90
23495;DHT22;26107;50.832;2.950;2024-02-26T07:19:53;7.00;99.90
23495;DHT22;26107;50.832;2.950;2024-02-26T07:34:53;6.80;99.90
23495;DHT22;26107;50.832;2.950;2024-02-26T07:49:54;6.80;99.90
23495;DHT22;26107;50.832;2.950;2024-02-26T08:04:54;6.90;99.90
23495;DHT22;26107;50.832;2.950;2024-02-26T08:19:55;6.90;99.90
23495;DHT22;26107;50.832;2.950;2024-02-26T08:34:57;7.00;99.90
23495;DHT22;26107;50.832;2.950;2024-02-26T08:50:00;6.90;99.90
23495;DHT22;26107;50.832;2.950;2024-02-26T09:05:01;6.80;99.90
23495;DHT22;26107;50.832;2.950;2024-02-26T09:20:03;6.60;99.90
23495;DHT22;26107;50.832;2.950;2024-02-26T09:35:05;6.70;99.90
23495;DHT22;26107;50.832;2.950;2024-02-26T09:50:07;6.70;99.90
23495;DHT22;26107;50.832;2.950;2024-02-26T10:05:10;6.50;99.90
23495;DHT22;26107;50.832;2.950;2024-02-26T10:20:19;6.50;99.90
23495;DHT22;26107;50.832;2.950;2024-02-26T10:35:22;6.60;99.90
23495;DHT22;26107;50.832;2.950;2024-02-26T10:50:22;6.60;99.90
23495;DHT22;26107;50.832;2.950;2024-02-26T11:05:23;6.50;99.90
23495;DHT22;26107;50.832;2.950;2024-02-26T11:20:28;6.40;99.90
23495;DHT22;26107;50.832;2.950;2024-02-26T11:35:29;6.60;99.90
23495;DHT22;26107;50.832;2.950;2024-02-26T11:50:36;6.60;99.90
23495;DHT22;26107;50.832;2.950;2024-02-26T12:05:39;6.70;99.90
23495;DHT22;26107;50.832;2.950;2024-02-26T12:20:39;6.80;99.90
23495;DHT22;26107;50.832;2.950;2024-02-26T12:35:40;6.80;99.90
23495;DHT22;26107;50.832;2.950;2024-02-26T12:50:45;6.70;99.90
23495;DHT22;26107;50.832;2.950;2024-02-26T13:05:46;6.80;99.90
23495;DHT22;26107;50.832;2.950;2024-02-26T13:20:49;6.70;99.90
23495;DHT22;26107;50.832;2.950;2024-02-26T13:35:50;6.80;99.90
23495;DHT22;26107;50.832;2.950;2024-02-26T13:50:51;6.90;99.90
23495;DHT22;26107;50.832;2.950;2024-02-26T14:05:51;6.90;99.90
23495;DHT22;26107;50.832;2.950;2024-02-26T14:20:52;6.90;99.90
23495;DHT22;26107;50.832;2.950;2024-02-26T14:35:52;7.00;99.90
23495;DHT22;26107;50.832;2.950;2024-02-26T14:50:53;7.00;99.90
23495;DHT22;26107;50.832;2.950;2024-02-26T15:05:54;7.10;99.90
23495;DHT22;26107;50.832;2.950;2024-02-26T15:20:54;7.20;99.90
23495;DHT22;26107;50.832;2.950;2024-02-26T15:35:55;7.20;99.90
23495;DHT22;26107;50.832;2.950;2024-02-26T15:50:58;7.10;99.90
23495;DHT22;26107;50.832;2.950;2024-02-26T16:05:59;7.10;99.90
23495;DHT22;26107;50.832;2.950;2024-02-26T16:20:59;7.30;99.90
23495;DHT22;26107;50.832;2.950;2024-02-26T16:36:00;7.30;99.90
23495;DHT22;26107;50.832;2.950;2024-02-26T16:51:03;7.20;99.90
23495;DHT22;26107;50.832;2.950;2024-02-26T17:06:04;7.20;99.90
23495;DHT22;26107;50.832;2.950;2024-02-26T17:21:05;7.20;99.90
23495;DHT22;26107;50.832;2.950;2024-02-26T17:36:05;7.40;99.90
23495;DHT22;26107;50.832;2.950;2024-02-26T17:51:08;7.20;99.90
23495;DHT22;26107;50.832;2.950;2024-02-26T18:06:11;7.30;99.90
23495;DHT22;26107;50.832;2.950;2024-02-26T18:21:13;7.20;99.90
23495;DHT22;26107;50.832;2.950;2024-02-26T18:36:13;7.20;99.90
23495;DHT22;26107;50.832;2.950;2024-02-26T18:51:22;7.20;99.90
23495;DHT22;26107;50.832;2.950;2024-02-26T19:06:23;7.20;99.90
23495;DHT22;26107;50.832;2.950;2024-02-26T19:21:24;7.10;99.90
23495;DHT22;26107;50.832;2.950;2024-02-26T19:36:24;6.90;99.90
23495;DHT22;26107;50.832;2.950;2024-02-26T19:51:26;7.10;99.90
23495;DHT22;26107;50.832;2.950;2024-02-26T20:06:27;6.90;99.90
23495;DHT22;26107;50.832;2.950;2024-02-26T20:21:28;6.90;99.90
23495;DHT22;26107;50.832;2.950;2024-02-26T20:36:31;6.90;99.90
23495;DHT22;26107;50.832;2.950;2024-02-26T20:51:31;7.00;99.90
23495;DHT22;26107;50.832;2.950;2024-02-26T21:06:32;7.00;99.90
23495;DHT22;26107;50.832;2.950;2024-02-26T21:21:33;6.80;99.90
23495;DHT22;26107;50.832;2.950;2024-02-26T21:36:38;6.80;99.90
23495;DHT22;26107;50.832;2.950;2024-02-26T21:51:47;6.80;99.90
23495;DHT22;26107;50.832;2.950;2024-02-26T22:06:51;6.70;99.90
23495;DHT22;26107;50.832;2.950;2024-02-26T22:21:52;6.70;99.90
23495;DHT22;26107;50.832;2.950;2024-02-26T22:36:55;6.50;99.90
23495;DHT22;26107;50.832;2.950;2024-02-26T22:51:55;6.70;99.90
23495;DHT22;26107;50.832;2.950;2024-02-26T23:06:58;6.50;99.90
23495;DHT22;26107;50.832;2.950;2024-02-26T23:22:02;6.30;99.90
23495;DHT22;26107;50.832;2.950;2024-02-26T23:37:05;6.30;99.90
23495;DHT22;26107;50.832;2.950;2024-02-26T23:52:06;6.30;99.90
